createdAt,value
2023-03-25T00:01:09.068Z,99327.54
2023-03-25T00:03:46.471Z,99322.96
2023-03-25T00:06:18.817Z,99318.38
2023-03-25T00:08:51.252Z,99313.48
2023-03-25T00:11:24.084Z,99313.27
2023-03-25T00:13:56.050Z,99306.01
2023-03-25T00:16:28.652Z,99300.33
2023-03-25T00:19:02.109Z,99297.37
2023-03-25T00:21:34.433Z,99293.52
2023-03-25T00:24:06.756Z,99292.08
2023-03-25T00:26:42.682Z,99290.47
2023-03-25T00:29:14.788Z,99292.31
2023-03-25T00:31:46.965Z,99287.83
2023-03-25T00:34:20.323Z,99285.24
2023-03-25T00:36:52.426Z,99278.41
2023-03-25T00:39:24.322Z,99274.67
2023-03-25T00:41:57.196Z,99276.80
2023-03-25T00:44:29.159Z,99272.44
2023-03-25T00:47:01.124Z,99274.06
2023-03-25T00:49:33.108Z,99265.85
2023-03-25T00:52:05.132Z,99267.42
2023-03-25T00:54:38.045Z,99263.66
2023-03-25T00:57:10.390Z,99268.10
2023-03-25T00:59:42.370Z,99266.34
2023-03-25T01:02:16.372Z,99264.18
2023-03-25T01:04:49.848Z,99261.28
2023-03-25T01:07:22.293Z,99256.53
2023-03-25T01:09:54.640Z,99255.23
2023-03-25T01:12:27.542Z,99251.86
2023-03-25T01:14:57.840Z,99261.02
2023-03-25T01:17:30.417Z,99255.58
2023-03-25T01:20:02.383Z,99253.52
2023-03-25T01:22:34.707Z,99249.27
2023-03-25T01:25:07.286Z,99244.78
2023-03-25T01:27:39.127Z,99246.81
2023-03-25T01:30:13.716Z,99252.91
2023-03-25T01:32:45.888Z,99269.19
2023-03-25T01:35:17.920Z,99260.50
2023-03-25T01:37:49.846Z,99256.09
2023-03-25T01:40:24.962Z,99256.73
2023-03-25T01:42:56.881Z,99257.56
2023-03-25T01:45:32.724Z,99247.84
2023-03-25T01:48:10.304Z,99240.70
2023-03-25T01:50:46.088Z,99236.84
2023-03-25T01:53:18.973Z,99239.20
2023-03-25T01:55:53.002Z,99240.27
2023-03-25T01:58:28.816Z,99234.25
2023-03-25T02:01:02.233Z,99231.93
2023-03-25T02:03:37.109Z,99232.45
2023-03-25T02:06:15.595Z,99226.85
2023-03-25T02:08:47.697Z,99226.35
2023-03-25T02:11:19.616Z,99226.25
2023-03-25T02:13:51.508Z,99228.13
2023-03-25T02:16:34.062Z,99233.92
2023-03-25T02:19:32.878Z,99240.59
2023-03-25T02:22:27.242Z,99238.35
2023-03-25T02:25:20.312Z,99235.55
2023-03-25T02:28:10.178Z,99227.10
2023-03-25T02:31:10.382Z,99215.81
2023-03-25T02:34:04.392Z,99208.11
2023-03-25T02:36:58.770Z,99198.17
2023-03-25T02:39:38.030Z,99202.95
2023-03-25T02:42:21.765Z,99209.09
2023-03-25T02:45:01.648Z,99200.02
2023-03-25T02:47:37.694Z,99207.86
2023-03-25T02:50:16.135Z,99208.11
2023-03-25T02:52:52.273Z,99217.98
2023-03-25T02:55:30.926Z,99218.96
2023-03-25T02:58:10.476Z,99215.65
2023-03-25T03:00:46.756Z,99214.95
2023-03-25T03:03:21.121Z,99216.39
2023-03-25T03:05:57.740Z,99210.52
2023-03-25T03:08:54.852Z,99209.50
2023-03-25T03:11:31.561Z,99204.95
2023-03-25T03:14:28.586Z,99195.25
2023-03-25T03:17:12.911Z,99195.50
2023-03-25T03:19:53.163Z,99193.48
2023-03-25T03:22:41.890Z,99191.95
2023-03-25T03:25:29.014Z,99180.23
2023-03-25T03:28:09.706Z,99190.89
2023-03-25T03:30:52.581Z,99198.18
2023-03-25T03:33:35.378Z,99202.73
2023-03-25T03:36:14.053Z,99204.38
2023-03-25T03:38:58.351Z,99207.92
2023-03-25T03:41:36.479Z,99213.31
2023-03-25T03:44:17.786Z,99216.49
2023-03-25T03:46:59.251Z,99216.81
2023-03-25T03:49:38.409Z,99220.75
2023-03-25T03:52:15.891Z,99224.92
2023-03-25T03:54:56.292Z,99239.30
2023-03-25T03:57:33.853Z,99232.66
2023-03-25T04:00:13.749Z,99235.67
2023-03-25T04:02:51.045Z,99235.32
2023-03-25T04:05:31.061Z,99237.05
2023-03-25T04:08:14.920Z,99242.19
2023-03-25T04:10:56.415Z,99241.89
2023-03-25T04:13:35.853Z,99244.29
2023-03-25T04:16:16.441Z,99250.65
2023-03-25T04:18:55.195Z,99247.23
2023-03-25T04:21:32.155Z,99247.43
2023-03-25T04:24:08.761Z,99240.10
2023-03-25T04:26:46.556Z,99237.43
2023-03-25T04:29:23.418Z,99240.20
2023-03-25T04:31:58.078Z,99232.92
2023-03-25T04:34:31.799Z,99229.82
2023-03-25T04:37:04.812Z,99226.52
2023-03-25T04:39:37.749Z,99229.75
2023-03-25T04:42:08.975Z,99232.13
2023-03-25T04:44:41.550Z,99234.77
2023-03-25T04:47:19.500Z,99248.75
2023-03-25T04:49:53.918Z,99250.52
2023-03-25T04:52:29.673Z,99247.30
2023-03-25T04:55:08.117Z,99235.16
2023-03-25T04:57:48.557Z,99234.44
2023-03-25T05:00:29.485Z,99233.23
2023-03-25T05:03:02.616Z,99226.35
2023-03-25T05:05:35.252Z,99225.45
2023-03-25T05:08:08.501Z,99225.04
2023-03-25T05:10:40.371Z,99231.14
2023-03-25T05:13:12.815Z,99233.49
2023-03-25T05:15:44.796Z,99234.91
2023-03-25T05:18:18.244Z,99234.90
2023-03-25T05:20:51.000Z,99242.92
2023-03-25T05:23:23.661Z,99246.61
2023-03-25T05:25:56.563Z,99245.42
2023-03-25T05:28:29.479Z,99241.63
2023-03-25T05:31:01.597Z,99243.40
2023-03-25T05:33:33.510Z,99242.98
2023-03-25T05:36:05.871Z,99242.59
2023-03-25T05:38:38.085Z,99242.19
2023-03-25T05:41:10.662Z,99239.34
2023-03-25T05:43:47.596Z,99238.28
2023-03-25T05:46:20.954Z,99239.20
2023-03-25T05:48:53.403Z,99240.44
2023-03-25T05:51:27.284Z,99239.86
2023-03-25T05:54:00.325Z,99240.45
2023-03-25T05:56:32.833Z,99239.91
2023-03-25T05:59:04.968Z,99242.19
2023-03-25T06:01:38.023Z,99239.69
2023-03-25T06:04:12.975Z,99234.38
2023-03-25T06:06:45.534Z,99235.74
2023-03-25T06:09:18.967Z,99233.39
2023-03-25T06:11:53.598Z,99236.19
2023-03-25T06:14:26.553Z,99231.38
2023-03-25T06:17:00.755Z,99233.65
2023-03-25T06:19:32.914Z,99235.81
2023-03-25T06:22:09.283Z,99233.02
2023-03-25T06:24:42.876Z,99235.69
2023-03-25T06:27:19.425Z,99238.32
2023-03-25T06:29:52.219Z,99240.52
2023-03-25T06:32:22.680Z,99237.78
2023-03-25T06:34:54.670Z,99240.25
2023-03-25T06:37:29.835Z,99240.75
2023-03-25T06:40:02.239Z,99239.67
2023-03-25T06:42:34.937Z,99243.15
2023-03-25T06:45:29.160Z,99245.53
2023-03-25T06:48:10.480Z,99245.37
2023-03-25T06:50:43.734Z,99248.54
2023-03-25T06:53:15.687Z,99246.48
2023-03-25T06:55:47.700Z,99251.02
2023-03-25T06:58:19.764Z,99249.70
2023-03-25T07:00:56.007Z,99251.19
2023-03-25T07:03:28.191Z,99248.99
2023-03-25T07:06:00.563Z,99245.91
2023-03-25T07:08:32.535Z,99246.77
2023-03-25T07:11:07.360Z,99243.54
2023-03-25T07:13:39.570Z,99244.10
2023-03-25T07:16:14.694Z,99234.86
2023-03-25T07:18:47.213Z,99238.53
2023-03-25T07:21:19.894Z,99238.88
2023-03-25T07:23:53.008Z,99242.66
2023-03-25T07:26:24.971Z,99236.25
2023-03-25T07:28:56.991Z,99236.65
2023-03-25T07:31:29.164Z,99237.90
2023-03-25T07:34:02.954Z,99239.65
2023-03-25T07:36:53.878Z,99239.91
2023-03-25T07:39:26.311Z,99237.30
2023-03-25T07:41:58.514Z,99234.89
2023-03-25T07:44:42.147Z,99234.04
2023-03-25T07:47:14.162Z,99234.94
2023-03-25T07:49:46.830Z,99231.02
2023-03-25T07:52:17.156Z,99233.43
2023-03-25T07:54:49.166Z,99228.28
2023-03-25T07:57:21.214Z,99225.33
2023-03-25T07:59:55.575Z,99227.43
2023-03-25T08:02:27.604Z,99226.95
2023-03-25T08:05:00.488Z,99228.34
2023-03-25T08:07:33.595Z,99235.42
2023-03-25T08:10:06.190Z,99237.54
2023-03-25T08:12:38.037Z,99223.66
2023-03-25T08:15:11.818Z,99230.39
2023-03-25T08:17:44.046Z,99227.80
2023-03-25T08:20:17.206Z,99229.88
2023-03-25T08:22:50.009Z,99222.94
2023-03-25T08:25:20.369Z,99225.29
2023-03-25T08:27:52.328Z,99223.34
2023-03-25T08:30:24.453Z,99230.13
2023-03-25T08:32:56.717Z,99227.39
2023-03-25T08:35:29.092Z,99233.09
2023-03-25T08:38:05.606Z,99236.98
2023-03-25T08:40:39.378Z,99229.35
2023-03-25T08:43:11.608Z,99236.20
2023-03-25T08:45:43.661Z,99230.87
2023-03-25T08:48:16.996Z,99233.59
2023-03-25T08:50:49.240Z,99232.59
2023-03-25T08:53:21.252Z,99235.02
2023-03-25T08:55:54.792Z,99236.58
2023-03-25T08:58:27.837Z,99234.45
2023-03-25T09:01:00.140Z,99229.91
2023-03-25T09:03:32.295Z,99233.77
2023-03-25T09:06:08.192Z,99222.65
2023-03-25T09:08:40.314Z,99224.33
2023-03-25T09:11:12.637Z,99223.38
2023-03-25T09:13:44.585Z,99226.55
2023-03-25T09:16:16.835Z,99222.07
2023-03-25T09:18:50.238Z,99219.40
2023-03-25T09:21:22.119Z,99225.82
2023-03-25T09:23:54.191Z,99227.65
2023-03-25T09:26:27.149Z,99227.20
2023-03-25T09:29:00.903Z,99231.11
2023-03-25T09:31:33.339Z,99227.00
2023-03-25T09:34:05.593Z,99236.05
2023-03-25T09:36:37.667Z,99241.33
2023-03-25T09:39:09.699Z,99236.15
2023-03-25T09:41:55.758Z,99240.96
2023-03-25T09:44:32.679Z,99242.01
2023-03-25T09:47:05.804Z,99240.64
2023-03-25T09:49:42.100Z,99238.65
2023-03-25T09:52:19.741Z,99244.34
2023-03-25T09:54:56.104Z,99234.77
2023-03-25T09:57:32.367Z,99229.10
2023-03-25T10:00:07.033Z,99233.67
2023-03-25T10:02:45.475Z,99237.77
2023-03-25T10:05:29.771Z,99246.58
2023-03-25T10:08:13.536Z,99237.42
2023-03-25T10:10:53.796Z,99228.45
2023-03-25T10:13:35.052Z,99229.40
2023-03-25T10:16:16.923Z,99230.77
2023-03-25T10:19:03.621Z,99224.44
2023-03-25T10:21:43.768Z,99219.56
2023-03-25T10:24:22.722Z,99216.88
2023-03-25T10:27:00.739Z,99216.27
2023-03-25T10:29:40.601Z,99214.69
2023-03-25T10:32:19.850Z,99213.20
2023-03-25T10:34:56.035Z,99213.36
2023-03-25T10:37:31.545Z,99212.77
2023-03-25T10:40:16.925Z,99205.95
2023-03-25T10:42:59.413Z,99202.76
2023-03-25T10:45:32.092Z,99198.08
2023-03-25T10:48:12.253Z,99197.91
2023-03-25T10:50:45.416Z,99198.95
2023-03-25T10:53:24.575Z,99197.48
2023-03-25T10:56:00.873Z,99218.96
2023-03-25T10:58:33.238Z,99217.30
2023-03-25T11:01:14.671Z,99215.38
2023-03-25T11:03:51.584Z,99213.98
2023-03-25T11:06:31.951Z,99205.22
2023-03-25T11:09:26.352Z,99207.81
2023-03-25T11:12:04.705Z,99206.21
2023-03-25T11:14:41.741Z,99211.71
2023-03-25T11:17:21.685Z,99217.86
2023-03-25T11:19:57.247Z,99220.11
2023-03-25T11:22:31.128Z,99225.45
2023-03-25T11:25:09.044Z,99228.27
2023-03-25T11:27:48.338Z,99241.12
2023-03-25T11:30:23.146Z,99237.68
2023-03-25T11:33:04.712Z,99242.52
2023-03-25T11:35:44.205Z,99235.40
2023-03-25T11:38:20.796Z,99232.34
2023-03-25T11:40:58.187Z,99229.77
2023-03-25T11:43:37.185Z,99225.33
2023-03-25T11:46:15.595Z,99224.96
2023-03-25T11:48:50.077Z,99212.33
2023-03-25T11:51:27.093Z,99195.34
2023-03-25T11:54:07.370Z,99181.75
2023-03-25T11:56:41.949Z,99198.45
2023-03-25T11:59:25.905Z,99194.45
2023-03-25T12:02:17.894Z,99200.66
2023-03-25T12:05:02.267Z,99194.02
2023-03-25T12:07:45.596Z,99189.63
2023-03-25T12:10:29.191Z,99189.04
2023-03-25T12:13:08.474Z,99184.23
2023-03-25T12:15:49.659Z,99178.59
2023-03-25T12:18:39.716Z,99173.51
2023-03-25T12:21:19.852Z,99165.19
2023-03-25T12:24:05.324Z,99175.12
2023-03-25T12:26:47.726Z,99176.59
2023-03-25T12:29:39.996Z,99170.14
2023-03-25T12:32:22.355Z,99168.50
2023-03-25T12:35:05.695Z,99174.73
2023-03-25T12:37:51.700Z,99171.65
2023-03-25T12:40:52.984Z,99167.34
2023-03-25T12:43:32.674Z,99159.20
2023-03-25T12:46:18.829Z,99157.19
2023-03-25T12:49:05.160Z,99154.77
2023-03-25T12:51:47.583Z,99159.77
2023-03-25T12:54:41.624Z,99157.80
2023-03-25T12:57:29.102Z,99151.25
2023-03-25T13:00:23.233Z,99145.77
2023-03-25T13:03:33.438Z,99137.67
2023-03-25T13:06:14.931Z,99134.56
2023-03-25T13:08:53.835Z,99128.00
2023-03-25T13:11:34.513Z,99133.60
2023-03-25T13:14:12.951Z,99130.98
2023-03-25T13:16:47.715Z,99127.59
2023-03-25T13:19:26.004Z,99128.02
2023-03-25T13:22:04.566Z,99135.07
2023-03-25T13:24:43.092Z,99146.41
2023-03-25T13:27:16.038Z,99193.38
2023-03-25T13:29:52.395Z,99213.69
2023-03-25T13:32:29.524Z,99214.26
2023-03-25T13:35:07.649Z,99204.75
2023-03-25T13:37:42.999Z,99198.60
2023-03-25T13:40:27.760Z,99176.82
2023-03-25T13:43:06.440Z,99165.88
2023-03-25T13:45:51.153Z,99161.67
2023-03-25T13:48:28.779Z,99166.98
2023-03-25T13:51:03.960Z,99163.79
2023-03-25T13:53:41.788Z,99160.97
2023-03-25T13:56:42.536Z,99158.55
2023-03-25T13:59:44.695Z,99152.29
2023-03-25T14:02:40.374Z,99147.33
2023-03-25T14:05:41.214Z,99149.59
2023-03-25T14:08:47.389Z,99142.21
2023-03-25T14:11:27.833Z,99148.27
2023-03-25T14:14:04.123Z,99140.95
2023-03-25T14:16:42.304Z,99146.04
2023-03-25T14:19:18.209Z,99157.64
2023-03-25T14:21:53.063Z,99151.22
2023-03-25T14:24:30.525Z,99154.17
2023-03-25T14:27:05.972Z,99145.77
2023-03-25T14:29:41.257Z,99141.77
2023-03-25T14:32:32.606Z,99141.01
2023-03-25T14:35:41.328Z,99140.23
2023-03-25T14:38:49.680Z,99140.06
2023-03-25T14:42:01.924Z,99136.86
2023-03-25T14:44:35.496Z,99129.78
2023-03-25T14:47:32.890Z,99135.56
2023-03-25T14:50:34.634Z,99135.02
2023-03-25T14:53:12.323Z,99140.43
2023-03-25T14:55:47.638Z,99134.84
2023-03-25T14:58:23.969Z,99128.73
2023-03-25T15:01:01.038Z,99126.84
2023-03-25T15:03:37.137Z,99127.14
2023-03-25T15:06:15.950Z,99128.72
2023-03-25T15:08:55.579Z,99128.23
2023-03-25T15:11:35.118Z,99123.52
2023-03-25T15:14:11.112Z,99122.05
2023-03-25T15:16:59.793Z,99122.65
2023-03-25T15:19:51.774Z,99120.15
2023-03-25T15:22:25.855Z,99119.41
2023-03-25T15:25:01.387Z,99123.42
2023-03-25T15:27:55.410Z,99119.77
2023-03-25T15:30:58.662Z,99118.77
2023-03-25T15:33:47.420Z,99116.95
2023-03-25T15:36:39.162Z,99113.58
2023-03-25T15:39:27.377Z,99112.56
2023-03-25T15:42:26.981Z,99108.13
2023-03-25T15:45:15.859Z,99107.11
2023-03-25T15:48:10.656Z,99103.65
2023-03-25T15:50:53.017Z,99104.13
2023-03-25T15:53:58.259Z,99105.73
2023-03-25T15:56:37.696Z,99105.39
2023-03-25T15:59:22.803Z,99114.26
2023-03-25T16:01:55.721Z,99114.88
2023-03-25T16:04:39.304Z,99114.40
2023-03-25T16:07:15.601Z,99115.05
2023-03-25T16:09:51.833Z,99115.09
2023-03-25T16:12:26.452Z,99116.33
2023-03-25T16:14:58.549Z,99119.05
2023-03-25T16:17:36.111Z,99118.02
2023-03-25T16:20:15.431Z,99121.16
2023-03-25T16:22:50.900Z,99124.35
2023-03-25T16:25:27.577Z,99127.36
2023-03-25T16:28:01.656Z,99124.67
2023-03-25T16:30:37.728Z,99125.40
2023-03-25T16:33:19.750Z,99126.70
2023-03-25T16:35:57.336Z,99126.52
2023-03-25T16:38:30.109Z,99129.40
2023-03-25T16:41:04.745Z,99127.29
2023-03-25T16:43:36.690Z,99135.70
2023-03-25T16:46:11.213Z,99137.10
2023-03-25T16:48:48.588Z,99137.68
2023-03-25T16:51:28.901Z,99137.63
2023-03-25T16:54:01.370Z,99142.00
2023-03-25T16:56:37.705Z,99143.56
2023-03-25T16:59:18.259Z,99145.36
2023-03-25T17:01:56.390Z,99147.65
2023-03-25T17:04:39.347Z,99150.63
2023-03-25T17:07:20.869Z,99155.33
2023-03-25T17:09:56.580Z,99154.63
2023-03-25T17:12:30.682Z,99158.92
2023-03-25T17:15:09.375Z,99161.94
2023-03-25T17:17:47.220Z,99164.80
2023-03-25T17:20:22.873Z,99162.48
2023-03-25T17:23:01.501Z,99166.70
2023-03-25T17:25:37.577Z,99169.33
2023-03-25T17:28:29.626Z,99172.95
2023-03-25T17:31:18.129Z,99170.10
2023-03-25T17:33:55.017Z,99174.64
2023-03-25T17:36:27.381Z,99177.09
2023-03-25T17:39:03.681Z,99182.23
2023-03-25T17:41:40.829Z,99185.70
2023-03-25T17:44:18.058Z,99185.83
2023-03-25T17:46:50.462Z,99190.80
2023-03-25T17:49:23.921Z,99191.70
2023-03-25T17:51:55.951Z,99185.80
2023-03-25T17:54:27.942Z,99194.63
2023-03-25T17:57:00.036Z,99195.20
2023-03-25T17:59:32.804Z,99194.73
2023-03-25T18:02:10.300Z,99197.62
2023-03-25T18:04:42.707Z,99196.80
2023-03-25T18:07:14.620Z,99200.73
2023-03-25T18:09:46.510Z,99204.64
2023-03-25T18:12:18.349Z,99205.36
2023-03-25T18:14:51.116Z,99200.23
2023-03-25T18:17:23.191Z,99199.94
2023-03-25T18:19:55.329Z,99196.20
2023-03-25T18:22:27.520Z,99192.70
2023-03-25T18:25:01.614Z,99196.05
2023-03-25T18:27:43.219Z,99193.60
2023-03-25T18:30:22.666Z,99187.62
2023-03-25T18:32:55.326Z,99186.73
2023-03-25T18:35:27.725Z,99189.66
2023-03-25T18:38:00.548Z,99191.23
2023-03-25T18:40:34.552Z,99193.22
2023-03-25T18:43:07.111Z,99214.05
2023-03-25T18:45:39.361Z,99248.16
2023-03-25T18:48:14.498Z,99245.45
2023-03-25T18:50:52.684Z,99249.73
2023-03-25T18:53:27.416Z,99251.48
2023-03-25T18:56:01.473Z,99250.45
2023-03-25T18:58:35.731Z,99248.69
2023-03-25T19:01:10.008Z,99253.11
2023-03-25T19:03:44.997Z,99253.59
2023-03-25T19:06:18.760Z,99243.69
2023-03-25T19:08:50.770Z,99235.83
2023-03-25T19:11:23.291Z,99226.95
2023-03-25T19:13:55.433Z,99226.23
2023-03-25T19:16:27.745Z,99218.45
2023-03-25T19:19:00.495Z,99208.41
2023-03-25T19:21:33.075Z,99214.77
2023-03-25T19:24:05.582Z,99213.02
2023-03-25T19:26:39.419Z,99217.53
2023-03-25T19:29:11.693Z,99212.48
2023-03-25T19:31:44.419Z,99207.58
2023-03-25T19:34:15.288Z,99208.63
2023-03-25T19:36:49.046Z,99208.17
2023-03-25T19:39:22.787Z,99211.64
2023-03-25T19:41:55.362Z,99207.88
2023-03-25T19:44:27.949Z,99205.13
2023-03-25T19:47:01.234Z,99203.75
2023-03-25T19:49:39.930Z,99205.31
2023-03-25T19:52:13.417Z,99214.14
2023-03-25T19:54:46.804Z,99212.39
2023-03-25T19:57:19.640Z,99211.49
2023-03-25T19:59:52.363Z,99205.36
2023-03-25T20:02:24.877Z,99204.89
2023-03-25T20:04:55.455Z,99209.00
2023-03-25T20:07:28.044Z,99213.80
2023-03-25T20:10:06.747Z,99211.67
2023-03-25T20:12:50.367Z,99213.19
2023-03-25T20:15:24.186Z,99214.67
2023-03-25T20:17:57.292Z,99209.70
2023-03-25T20:20:31.482Z,99206.58
2023-03-25T20:23:03.512Z,99210.52
2023-03-25T20:25:35.937Z,99211.79
2023-03-25T20:28:08.266Z,99213.91
2023-03-25T20:30:39.525Z,99211.14
2023-03-25T20:33:11.870Z,99211.06
2023-03-25T20:35:44.544Z,99216.95
2023-03-25T20:38:15.961Z,99209.27
2023-03-25T20:40:47.824Z,99210.92
2023-03-25T20:43:20.272Z,99207.95
2023-03-25T20:45:57.194Z,99200.89
2023-03-25T20:48:30.506Z,99201.65
2023-03-25T20:51:05.887Z,99196.27
2023-03-25T20:53:38.447Z,99195.88
2023-03-25T20:56:10.747Z,99194.29
2023-03-25T20:58:44.472Z,99198.02
2023-03-25T21:01:16.735Z,99200.11
2023-03-25T21:03:52.195Z,99193.57
2023-03-25T21:06:26.774Z,99190.23
2023-03-25T21:09:07.026Z,99191.20
2023-03-25T21:11:40.223Z,99192.26
2023-03-25T21:14:13.779Z,99190.27
2023-03-25T21:16:46.610Z,99187.20
2023-03-25T21:19:19.593Z,99186.51
2023-03-25T21:21:51.945Z,99185.04
2023-03-25T21:24:24.155Z,99178.61
2023-03-25T21:26:56.026Z,99182.98
2023-03-25T21:29:28.174Z,99183.06
2023-03-25T21:32:00.874Z,99178.23
2023-03-25T21:34:33.372Z,99175.34
2023-03-25T21:37:05.520Z,99171.40
2023-03-25T21:39:37.833Z,99169.80
2023-03-25T21:42:10.217Z,99173.20
2023-03-25T21:44:44.032Z,99166.46
2023-03-25T21:47:18.019Z,99169.11
2023-03-25T21:49:50.468Z,99167.66
2023-03-25T21:52:26.400Z,99163.66
2023-03-25T21:54:59.276Z,99168.08
2023-03-25T21:57:31.831Z,99161.42
2023-03-25T22:00:05.842Z,99162.85
2023-03-25T22:02:44.826Z,99157.77
2023-03-25T22:05:17.999Z,99160.00
2023-03-25T22:07:49.968Z,99158.15
2023-03-25T22:10:22.086Z,99157.55
2023-03-25T22:12:54.077Z,99147.47
2023-03-25T22:15:26.273Z,99141.98
2023-03-25T22:17:58.589Z,99146.84
2023-03-25T22:20:30.916Z,99140.60
2023-03-25T22:23:03.397Z,99137.46
2023-03-25T22:25:35.776Z,99136.64
2023-03-25T22:28:07.902Z,99138.66
2023-03-25T22:30:41.418Z,99133.98
2023-03-25T22:33:13.749Z,99134.50
2023-03-25T22:35:46.044Z,99134.33
2023-03-25T22:38:18.520Z,99127.80
2023-03-25T22:40:50.815Z,99131.94
2023-03-25T22:43:22.784Z,99125.16
2023-03-25T22:45:54.868Z,99118.43
2023-03-25T22:48:27.108Z,99118.66
2023-03-25T22:51:00.764Z,99121.90
2023-03-25T22:53:32.739Z,99122.71
2023-03-25T22:56:05.257Z,99120.39
2023-03-25T22:58:36.372Z,99113.38
2023-03-25T23:01:19.017Z,99120.37
2023-03-25T23:03:51.685Z,99123.34
2023-03-25T23:06:25.727Z,99125.05
2023-03-25T23:08:59.130Z,99124.90
2023-03-25T23:11:32.574Z,99129.58
2023-03-25T23:14:07.389Z,99126.77
2023-03-25T23:16:41.893Z,99131.20
2023-03-25T23:19:14.034Z,99132.08
2023-03-25T23:21:46.082Z,99129.14
2023-03-25T23:24:18.245Z,99129.66
2023-03-25T23:26:50.247Z,99127.41
2023-03-25T23:29:23.448Z,99138.10
2023-03-25T23:31:55.672Z,99135.70
2023-03-25T23:34:27.864Z,99138.00
2023-03-25T23:36:59.958Z,99133.52
2023-03-25T23:39:32.097Z,99126.39
2023-03-25T23:42:04.286Z,99128.90
2023-03-25T23:44:37.114Z,99127.98
2023-03-25T23:47:09.400Z,99122.56
2023-03-25T23:49:44.311Z,99122.75
2023-03-25T23:52:16.254Z,99125.05
2023-03-25T23:54:48.678Z,99119.95
2023-03-25T23:57:20.590Z,99119.98
2023-03-25T23:59:53.289Z,99120.20
